createdAt,value
2022-12-02T00:01:29.610Z,6.82
2022-12-02T00:03:59.725Z,6.73
2022-12-02T00:06:32.444Z,6.73
2022-12-02T00:09:08.732Z,6.70
2022-12-02T00:11:43.217Z,6.77
2022-12-02T00:14:18.939Z,6.62
2022-12-02T00:16:49.151Z,6.42
2022-12-02T00:19:19.522Z,6.04
2022-12-02T00:21:50.560Z,5.54
2022-12-02T00:24:20.896Z,5.68
2022-12-02T00:26:52.601Z,5.75
2022-12-02T00:29:24.069Z,6.45
2022-12-02T00:31:54.815Z,6.23
2022-12-02T00:34:26.701Z,6.32
2022-12-02T00:36:56.995Z,6.25
2022-12-02T00:39:27.202Z,6.58
2022-12-02T00:41:58.514Z,6.46
2022-12-02T00:44:45.783Z,6.52
2022-12-02T00:47:15.722Z,5.93
2022-12-02T00:49:45.764Z,5.70
2022-12-02T00:52:15.470Z,6.23
2022-12-02T00:54:45.545Z,6.30
2022-12-02T00:57:16.383Z,5.75
2022-12-02T00:59:46.141Z,5.77
2022-12-02T01:02:15.866Z,5.81
2022-12-02T01:04:46.236Z,6.23
2022-12-02T01:07:16.984Z,6.39
2022-12-02T01:09:46.905Z,6.25
2022-12-02T01:12:18.994Z,6.58
2022-12-02T01:14:49.100Z,6.63
2022-12-02T01:17:19.088Z,6.27
2022-12-02T01:19:50.719Z,6.25
2022-12-02T01:22:20.715Z,6.01
2022-12-02T01:24:51.965Z,6.50
2022-12-02T01:27:24.315Z,5.98
2022-12-02T01:29:54.209Z,6.36
2022-12-02T01:32:24.885Z,6.41
2022-12-02T01:34:54.856Z,5.88
2022-12-02T01:37:24.843Z,6.33
2022-12-02T01:39:54.565Z,6.55
2022-12-02T01:42:26.567Z,6.57
2022-12-02T01:44:56.410Z,6.63
2022-12-02T01:47:26.139Z,6.58
2022-12-02T01:49:56.146Z,6.45
2022-12-02T01:52:25.763Z,6.12
2022-12-02T01:54:55.185Z,5.95
2022-12-02T01:57:29.505Z,6.65
2022-12-02T01:59:59.628Z,6.55
2022-12-02T02:02:32.081Z,6.89
2022-12-02T02:05:04.661Z,6.83
2022-12-02T02:07:34.869Z,6.74
2022-12-02T02:10:05.525Z,6.40
2022-12-02T02:15:31.082Z,6.69
2022-12-02T02:18:05.069Z,6.69
2022-12-02T02:20:37.026Z,6.66
2022-12-02T02:23:34.117Z,5.89
2022-12-02T02:26:04.486Z,6.63
2022-12-02T02:28:34.752Z,6.66
2022-12-02T02:31:04.640Z,6.68
2022-12-02T02:33:36.565Z,6.67
2022-12-02T02:36:06.987Z,6.78
2022-12-02T02:38:39.037Z,6.83
2022-12-02T02:41:09.138Z,6.76
2022-12-02T02:43:40.501Z,6.60
2022-12-02T02:46:10.993Z,5.96
2022-12-02T02:48:41.385Z,6.37
2022-12-02T02:51:12.152Z,6.48
2022-12-02T02:53:44.607Z,6.22
2022-12-02T02:56:15.437Z,6.45
2022-12-02T02:58:45.721Z,6.78
2022-12-02T03:01:18.178Z,6.81
2022-12-02T03:03:50.800Z,6.51
2022-12-02T03:06:21.355Z,6.43
2022-12-02T03:08:53.154Z,6.80
2022-12-02T03:11:23.645Z,6.61
2022-12-02T03:13:54.761Z,6.77
2022-12-02T03:16:26.243Z,6.84
2022-12-02T03:18:57.544Z,6.58
2022-12-02T03:21:28.237Z,6.06
2022-12-02T03:24:03.147Z,6.04
2022-12-02T03:26:34.012Z,6.51
2022-12-02T03:29:04.471Z,6.38
2022-12-02T03:31:35.732Z,6.35
2022-12-02T03:34:05.934Z,6.62
2022-12-02T03:36:35.435Z,6.49
2022-12-02T03:39:07.549Z,6.78
2022-12-02T03:41:37.838Z,6.81
2022-12-02T03:44:07.446Z,6.67
2022-12-02T03:46:37.511Z,6.74
2022-12-02T03:49:08.495Z,6.67
2022-12-02T03:51:38.384Z,5.87
2022-12-02T03:54:09.901Z,5.94
2022-12-02T03:56:41.206Z,6.09
2022-12-02T03:59:12.600Z,6.48
2022-12-02T04:01:42.460Z,6.64
2022-12-02T04:04:12.500Z,6.51
2022-12-02T04:06:42.194Z,6.00
2022-12-02T04:09:13.139Z,6.46
2022-12-02T04:11:43.020Z,6.37
2022-12-02T04:14:12.842Z,6.63
2022-12-02T04:16:42.973Z,6.54
2022-12-02T04:19:14.966Z,6.00
2022-12-02T04:21:44.935Z,6.31
2022-12-02T04:24:16.396Z,6.05
2022-12-02T04:26:47.605Z,6.32
2022-12-02T04:29:17.508Z,6.25
2022-12-02T04:31:47.478Z,6.52
2022-12-02T04:34:17.930Z,6.36
2022-12-02T04:36:47.730Z,6.20
2022-12-02T04:39:19.012Z,6.21
2022-12-02T04:41:48.607Z,6.52
2022-12-02T04:44:18.466Z,6.37
2022-12-02T04:46:48.755Z,6.37
2022-12-02T04:49:18.606Z,6.35
2022-12-02T04:51:48.353Z,6.36
2022-12-02T04:54:20.352Z,6.28
2022-12-02T04:56:50.245Z,6.56
2022-12-02T04:59:20.050Z,6.53
2022-12-02T05:01:49.538Z,6.34
2022-12-02T05:04:19.087Z,6.39
2022-12-02T05:06:49.048Z,6.37
2022-12-02T05:09:20.688Z,6.50
2022-12-02T05:11:52.169Z,6.58
2022-12-02T05:14:22.383Z,6.26
2022-12-02T05:16:53.479Z,6.28
2022-12-02T05:19:23.416Z,6.37
2022-12-02T05:21:53.284Z,6.05
2022-12-02T05:24:25.026Z,6.16
2022-12-02T05:26:55.013Z,6.57
2022-12-02T05:29:25.145Z,6.08
2022-12-02T05:31:55.067Z,5.86
2022-12-02T05:34:25.463Z,6.06
2022-12-02T05:36:55.610Z,6.23
2022-12-02T05:39:26.812Z,6.15
2022-12-02T05:41:59.834Z,6.08
2022-12-02T05:44:32.649Z,6.03
2022-12-02T05:47:12.787Z,5.92
2022-12-02T05:49:43.736Z,5.76
2022-12-02T05:52:23.890Z,5.80
2022-12-02T05:54:59.564Z,5.60
2022-12-02T05:57:32.881Z,5.46
2022-12-02T06:00:17.771Z,5.02
2022-12-02T06:02:49.812Z,5.64
2022-12-02T06:05:24.939Z,4.86
2022-12-02T06:08:00.508Z,5.41
2022-12-02T06:10:33.760Z,5.84
2022-12-02T06:13:11.570Z,5.37
2022-12-02T06:15:45.909Z,5.29
2022-12-02T06:18:22.677Z,5.29
2022-12-02T06:21:01.802Z,5.02
2022-12-02T06:23:36.979Z,4.63
2022-12-02T06:26:11.793Z,4.81
2022-12-02T06:28:44.989Z,5.06
2022-12-02T06:31:18.320Z,5.29
2022-12-02T06:33:51.336Z,4.93
2022-12-02T06:36:22.767Z,4.97
2022-12-02T06:38:57.297Z,5.16
2022-12-02T06:41:30.528Z,4.65
2022-12-02T06:44:19.974Z,4.45
2022-12-02T06:46:50.199Z,5.05
2022-12-02T06:49:23.015Z,5.01
2022-12-02T06:51:59.165Z,5.11
2022-12-02T06:54:31.070Z,5.48
2022-12-02T06:57:07.959Z,4.88
2022-12-02T06:59:37.994Z,5.01
2022-12-02T07:02:17.173Z,5.27
2022-12-02T07:04:53.221Z,5.34
2022-12-02T07:07:25.964Z,5.33
2022-12-02T07:09:57.989Z,5.26
2022-12-02T07:12:39.548Z,5.06
2022-12-02T07:15:23.757Z,5.34
2022-12-02T07:17:59.112Z,5.01
2022-12-02T07:20:34.282Z,5.20
2022-12-02T07:23:07.573Z,5.11
2022-12-02T07:25:38.959Z,5.27
2022-12-02T07:28:25.165Z,5.04
2022-12-02T07:31:02.803Z,4.73
2022-12-02T07:33:34.254Z,4.99
2022-12-02T07:36:04.576Z,5.27
2022-12-02T07:39:04.670Z,5.43
2022-12-02T07:41:28.606Z,5.21
2022-12-02T07:44:03.759Z,5.12
2022-12-02T07:46:36.381Z,5.09
2022-12-02T07:49:06.499Z,4.79
2022-12-02T07:51:36.823Z,5.21
2022-12-02T07:54:06.526Z,5.11
2022-12-02T07:56:35.839Z,5.08
2022-12-02T07:59:14.250Z,4.98
2022-12-02T08:01:45.596Z,4.93
2022-12-02T08:04:15.419Z,5.18
2022-12-02T08:06:45.084Z,5.48
2022-12-02T08:09:14.558Z,5.58
2022-12-02T08:11:43.787Z,4.23
2022-12-02T08:14:15.276Z,5.22
2022-12-02T08:16:44.822Z,4.16
2022-12-02T08:19:14.735Z,4.78
2022-12-02T08:21:45.280Z,4.98
2022-12-02T08:24:15.234Z,5.22
2022-12-02T08:26:45.272Z,5.32
2022-12-02T08:29:17.178Z,5.20
2022-12-02T08:31:46.989Z,5.21
2022-12-02T08:34:16.758Z,5.35
2022-12-02T08:36:47.455Z,5.52
2022-12-02T08:39:17.568Z,5.44
2022-12-02T08:41:47.083Z,5.10
2022-12-02T08:44:18.814Z,5.43
2022-12-02T08:46:54.087Z,4.97
2022-12-02T08:49:24.338Z,5.36
2022-12-02T08:51:54.388Z,5.38
2022-12-02T08:54:24.323Z,5.02
2022-12-02T08:56:54.664Z,5.08
2022-12-02T08:59:25.979Z,4.43
2022-12-02T09:01:55.840Z,4.05
2022-12-02T09:04:25.874Z,4.94
2022-12-02T09:06:55.419Z,4.90
2022-12-02T09:09:25.048Z,5.14
2022-12-02T09:11:55.139Z,5.17
2022-12-02T09:14:26.127Z,5.37
2022-12-02T09:16:55.600Z,5.64
2022-12-02T09:19:27.593Z,5.30
2022-12-02T09:21:57.219Z,5.64
2022-12-02T09:24:27.239Z,5.67
2022-12-02T09:26:57.039Z,5.12
2022-12-02T09:29:27.829Z,4.95
2022-12-02T09:31:57.415Z,5.03
2022-12-02T09:34:26.983Z,5.12
2022-12-02T09:36:56.818Z,5.52
2022-12-02T09:39:26.696Z,5.00
2022-12-02T09:41:55.862Z,4.29
2022-12-02T09:44:26.920Z,5.30
2022-12-02T09:46:56.685Z,5.36
2022-12-02T09:49:26.643Z,4.98
2022-12-02T09:52:01.323Z,5.40
2022-12-02T09:54:31.802Z,5.13
2022-12-02T09:57:02.323Z,5.06
2022-12-02T09:59:36.928Z,5.46
2022-12-02T10:02:07.128Z,4.65
2022-12-02T10:04:37.509Z,4.78
2022-12-02T10:07:09.785Z,4.51
2022-12-02T10:09:40.360Z,4.76
2022-12-02T10:12:11.933Z,4.57
2022-12-02T10:14:43.840Z,4.85
2022-12-02T10:17:18.495Z,4.84
2022-12-02T10:19:49.317Z,5.06
2022-12-02T10:22:21.119Z,5.21
2022-12-02T10:24:51.664Z,5.08
2022-12-02T10:27:29.331Z,5.48
2022-12-02T10:30:17.686Z,5.40
2022-12-02T10:33:00.700Z,4.90
2022-12-02T10:35:31.811Z,5.28
2022-12-02T10:38:02.467Z,5.67
2022-12-02T10:40:32.417Z,5.41
2022-12-02T10:43:13.352Z,5.55
2022-12-02T10:45:59.155Z,5.29
2022-12-02T10:48:28.929Z,5.55
2022-12-02T10:50:59.378Z,5.17
2022-12-02T10:53:32.676Z,5.54
2022-12-02T10:56:02.496Z,5.62
2022-12-02T10:58:33.706Z,5.27
2022-12-02T11:01:05.561Z,5.44
2022-12-02T11:03:35.594Z,5.83
2022-12-02T11:06:07.493Z,5.45
2022-12-02T11:08:37.329Z,5.49
2022-12-02T11:11:13.252Z,4.74
2022-12-02T11:13:55.295Z,5.20
2022-12-02T11:16:54.279Z,5.74
2022-12-02T11:19:49.800Z,5.41
2022-12-02T11:23:02.557Z,5.63
2022-12-02T11:25:55.416Z,4.81
2022-12-02T11:29:17.024Z,5.43
2022-12-02T11:32:02.059Z,5.46
2022-12-02T11:35:16.224Z,5.06
2022-12-02T11:37:49.152Z,4.84
2022-12-02T11:41:01.872Z,5.32
2022-12-02T11:44:19.396Z,5.41
2022-12-02T11:46:51.798Z,5.55
2022-12-02T11:49:33.598Z,5.70
2022-12-02T11:52:23.009Z,5.27
2022-12-02T11:54:57.569Z,5.62
2022-12-02T11:57:31.052Z,5.75
2022-12-02T12:00:00.814Z,5.29
2022-12-02T12:02:30.996Z,5.06
2022-12-02T12:05:03.674Z,5.29
2022-12-02T12:07:45.771Z,5.71
2022-12-02T12:10:26.826Z,5.54
2022-12-02T12:13:19.596Z,5.66
2022-12-02T12:15:59.692Z,5.46
2022-12-02T12:18:46.367Z,5.79
2022-12-02T12:21:17.887Z,5.32
2022-12-02T12:23:49.124Z,5.64
2022-12-02T12:26:35.425Z,5.69
2022-12-02T12:29:06.764Z,5.24
2022-12-02T12:31:38.861Z,4.89
2022-12-02T12:34:10.826Z,5.08
2022-12-02T12:36:42.895Z,5.63
2022-12-02T12:39:14.459Z,5.66
2022-12-02T12:42:01.798Z,5.77
2022-12-02T12:44:33.113Z,5.95
2022-12-02T12:47:04.611Z,5.23
2022-12-02T12:49:35.394Z,4.60
2022-12-02T12:52:06.015Z,4.57
2022-12-02T12:54:37.345Z,4.92
2022-12-02T12:57:08.215Z,5.68
2022-12-02T12:59:38.900Z,5.54
2022-12-02T13:02:10.161Z,5.16
2022-12-02T13:04:40.400Z,4.93
2022-12-02T13:07:10.490Z,5.28
2022-12-02T13:09:42.009Z,5.83
2022-12-02T13:12:13.238Z,5.47
2022-12-02T13:14:43.899Z,5.91
2022-12-02T13:17:14.163Z,5.17
2022-12-02T13:19:45.336Z,5.43
2022-12-02T13:22:15.348Z,5.40
2022-12-02T13:24:48.000Z,5.53
2022-12-02T13:27:18.327Z,5.80
2022-12-02T13:29:48.295Z,5.93
2022-12-02T13:32:18.594Z,5.58
2022-12-02T13:34:48.360Z,5.86
2022-12-02T13:37:18.199Z,5.53
2022-12-02T13:39:50.050Z,5.63
2022-12-02T13:42:20.023Z,5.83
2022-12-02T13:44:50.368Z,5.47
2022-12-02T13:47:20.371Z,6.14
2022-12-02T13:49:50.608Z,5.95
2022-12-02T13:52:20.635Z,5.65
2022-12-02T13:54:52.313Z,5.50
2022-12-02T13:57:22.198Z,5.80
2022-12-02T13:59:52.353Z,5.78
2022-12-02T14:02:22.280Z,5.67
2022-12-02T14:04:52.816Z,5.90
2022-12-02T14:07:24.223Z,5.61
2022-12-02T14:09:56.197Z,4.97
2022-12-02T14:12:25.979Z,4.65
2022-12-02T14:14:56.115Z,5.43
2022-12-02T14:17:25.781Z,5.86
2022-12-02T14:19:55.626Z,5.18
2022-12-02T14:22:25.413Z,5.63
2022-12-02T14:24:58.958Z,5.46
2022-12-02T14:27:28.735Z,5.78
2022-12-02T14:29:58.687Z,5.49
2022-12-02T14:32:28.659Z,5.33
2022-12-02T14:34:58.430Z,5.42
2022-12-02T14:37:28.225Z,5.49
2022-12-02T14:39:59.377Z,5.87
2022-12-02T14:42:29.029Z,5.74
2022-12-02T14:44:59.313Z,5.17
2022-12-02T14:47:29.939Z,5.00
2022-12-02T14:50:00.192Z,5.28
2022-12-02T14:52:30.094Z,4.99
2022-12-02T14:55:03.198Z,5.00
2022-12-02T14:57:34.214Z,4.86
2022-12-02T15:00:05.545Z,4.51
2022-12-02T15:02:35.464Z,4.42
2022-12-02T15:05:12.464Z,4.94
2022-12-02T15:07:44.125Z,5.47
2022-12-02T15:10:20.114Z,5.56
2022-12-02T15:12:50.247Z,4.75
2022-12-02T15:18:10.124Z,5.64
2022-12-02T15:20:40.512Z,5.80
2022-12-02T15:23:10.199Z,5.53
2022-12-02T15:25:42.085Z,5.44
2022-12-02T15:28:13.267Z,5.51
2022-12-02T15:30:43.584Z,5.62
2022-12-02T15:33:13.832Z,5.67
2022-12-02T15:35:43.898Z,5.38
2022-12-02T15:38:14.026Z,5.67
2022-12-02T15:40:45.943Z,5.74
2022-12-02T15:43:15.875Z,5.52
2022-12-02T15:45:46.776Z,5.64
2022-12-02T15:48:16.551Z,5.62
2022-12-02T15:50:49.241Z,5.63
2022-12-02T15:53:23.126Z,5.73
2022-12-02T15:55:54.518Z,5.51
2022-12-02T15:58:24.823Z,5.59
2022-12-02T16:00:55.557Z,5.16
2022-12-02T16:03:25.877Z,5.61
2022-12-02T16:05:57.295Z,5.30
2022-12-02T16:08:27.480Z,5.55
2022-12-02T16:10:59.009Z,5.47
2022-12-02T16:13:29.242Z,5.43
2022-12-02T16:15:59.899Z,5.43
2022-12-02T16:18:30.037Z,5.51
2022-12-02T16:21:00.490Z,5.53
2022-12-02T16:23:31.663Z,5.20
2022-12-02T16:26:03.207Z,5.35
2022-12-02T16:28:33.328Z,5.24
2022-12-02T16:31:03.440Z,5.53
2022-12-02T16:33:33.438Z,5.14
2022-12-02T16:36:03.198Z,5.40
2022-12-02T16:38:35.233Z,5.48
2022-12-02T16:41:17.504Z,5.49
2022-12-02T16:43:47.188Z,5.72
2022-12-02T16:46:17.500Z,5.48
2022-12-02T16:48:47.649Z,5.67
2022-12-02T16:51:17.643Z,5.22
2022-12-02T16:53:47.466Z,5.68
2022-12-02T16:56:19.126Z,5.76
2022-12-02T16:58:51.374Z,5.31
2022-12-02T17:01:21.314Z,5.53
2022-12-02T17:03:51.455Z,5.31
2022-12-02T17:06:21.491Z,5.46
2022-12-02T17:08:55.655Z,5.34
2022-12-02T17:11:27.631Z,5.03
2022-12-02T17:13:57.757Z,5.13
2022-12-02T17:16:27.962Z,5.46
2022-12-02T17:18:57.672Z,5.63
2022-12-02T17:21:27.715Z,5.57
2022-12-02T17:23:57.917Z,5.48
2022-12-02T17:26:29.141Z,5.18
2022-12-02T17:28:58.986Z,4.97
2022-12-02T17:31:28.994Z,5.22
2022-12-02T17:34:00.813Z,5.67
2022-12-02T17:36:30.763Z,5.26
2022-12-02T17:39:00.503Z,5.27
2022-12-02T17:41:32.642Z,4.73
2022-12-02T17:44:02.425Z,4.84
2022-12-02T17:46:32.182Z,5.42
2022-12-02T17:49:01.883Z,4.92
2022-12-02T17:51:31.424Z,5.30
2022-12-02T17:54:01.559Z,5.40
2022-12-02T17:56:32.869Z,4.68
2022-12-02T17:59:02.574Z,5.23
2022-12-02T18:01:32.413Z,5.13
2022-12-02T18:04:02.914Z,4.66
2022-12-02T18:06:33.059Z,4.82
2022-12-02T18:09:02.847Z,5.24
2022-12-02T18:11:34.931Z,4.38
2022-12-02T18:14:04.819Z,5.10
2022-12-02T18:16:34.737Z,5.36
2022-12-02T18:19:04.943Z,5.57
2022-12-02T18:21:35.539Z,5.43
2022-12-02T18:24:07.443Z,5.08
2022-12-02T18:26:39.211Z,5.32
2022-12-02T18:29:10.990Z,5.02
2022-12-02T18:31:41.212Z,4.99
2022-12-02T18:34:11.227Z,4.71
2022-12-02T18:36:41.202Z,4.64
2022-12-02T18:39:11.559Z,5.35
2022-12-02T18:41:43.524Z,5.22
2022-12-02T18:44:14.131Z,5.47
2022-12-02T18:46:44.198Z,5.07
2022-12-02T18:49:14.588Z,5.34
2022-12-02T18:51:45.771Z,4.88
2022-12-02T18:54:16.150Z,4.69
2022-12-02T18:56:47.309Z,5.20
2022-12-02T18:59:17.639Z,5.17
2022-12-02T19:01:48.127Z,5.31
2022-12-02T19:04:18.365Z,5.72
2022-12-02T19:06:49.239Z,5.34
2022-12-02T19:09:18.860Z,5.32
2022-12-02T19:11:50.430Z,5.17
2022-12-02T19:14:20.424Z,5.01
2022-12-02T19:16:50.334Z,5.33
2022-12-02T19:19:20.066Z,5.33
2022-12-02T19:21:49.916Z,5.53
2022-12-02T19:24:19.505Z,5.50
2022-12-02T19:26:50.661Z,5.32
2022-12-02T19:29:20.745Z,5.46
2022-12-02T19:31:50.786Z,5.29
2022-12-02T19:34:20.669Z,4.74
2022-12-02T19:36:50.387Z,4.88
2022-12-02T19:39:19.898Z,4.86
2022-12-02T19:41:54.274Z,4.66
2022-12-02T19:44:24.322Z,4.62
2022-12-02T19:46:54.272Z,4.19
2022-12-02T19:49:24.399Z,4.15
2022-12-02T19:51:54.414Z,4.93
2022-12-02T19:54:24.561Z,4.14
2022-12-02T19:56:56.443Z,4.62
2022-12-02T19:59:26.564Z,4.48
2022-12-02T20:01:56.630Z,4.73
2022-12-02T20:04:40.651Z,4.41
2022-12-02T20:07:11.117Z,4.95
2022-12-02T20:09:41.279Z,4.79
2022-12-02T20:12:12.766Z,4.68
2022-12-02T20:14:43.304Z,4.68
2022-12-02T20:17:14.084Z,5.00
2022-12-02T20:19:44.299Z,4.53
2022-12-02T20:22:16.409Z,4.17
2022-12-02T20:24:46.595Z,4.78
2022-12-02T20:27:18.497Z,5.09
2022-12-02T20:29:48.890Z,5.29
2022-12-02T20:32:19.049Z,4.85
2022-12-02T20:34:48.901Z,5.18
2022-12-02T20:37:19.289Z,5.38
2022-12-02T20:39:49.284Z,4.53
2022-12-02T20:42:21.029Z,5.35
2022-12-02T20:44:53.690Z,5.46
2022-12-02T20:47:23.931Z,5.25
2022-12-02T20:49:53.954Z,5.14
2022-12-02T20:52:23.849Z,5.07
2022-12-02T20:55:07.302Z,5.30
2022-12-02T20:57:38.719Z,4.58
2022-12-02T21:00:10.090Z,5.21
2022-12-02T21:02:39.830Z,5.05
2022-12-02T21:05:11.168Z,5.27
2022-12-02T21:07:43.655Z,5.02
2022-12-02T21:10:14.369Z,4.98
2022-12-02T21:12:45.661Z,5.27
2022-12-02T21:15:17.342Z,4.95
2022-12-02T21:17:47.751Z,5.19
2022-12-02T21:20:19.455Z,4.97
2022-12-02T21:22:49.446Z,4.43
2022-12-02T21:25:19.716Z,4.78
2022-12-02T21:27:51.525Z,4.90
2022-12-02T21:30:21.672Z,5.13
2022-12-02T21:32:51.598Z,4.57
2022-12-02T21:35:21.860Z,4.28
2022-12-02T21:37:51.906Z,4.03
2022-12-02T21:40:22.078Z,4.29
2022-12-02T21:42:53.840Z,5.04
2022-12-02T21:45:23.627Z,5.48
2022-12-02T21:47:53.841Z,4.72
2022-12-02T21:50:23.670Z,5.28
2022-12-02T21:52:53.674Z,4.41
2022-12-02T21:55:23.559Z,4.96
2022-12-02T21:57:54.898Z,4.03
2022-12-02T22:00:25.620Z,4.16
2022-12-02T22:02:55.580Z,4.15
2022-12-02T22:05:25.387Z,4.95
2022-12-02T22:07:55.605Z,5.06
2022-12-02T22:10:26.917Z,4.37
2022-12-02T22:12:59.920Z,4.80
2022-12-02T22:15:30.028Z,4.97
2022-12-02T22:18:00.154Z,5.23
2022-12-02T22:20:29.960Z,5.43
2022-12-02T22:23:01.144Z,5.63
2022-12-02T22:25:30.860Z,5.16
2022-12-02T22:28:02.166Z,5.14
2022-12-02T22:30:31.795Z,5.52
2022-12-02T22:33:01.676Z,5.62
2022-12-02T22:35:31.645Z,5.09
2022-12-02T22:38:01.609Z,5.49
2022-12-02T22:40:31.315Z,5.70
2022-12-02T22:43:03.289Z,5.47
2022-12-02T22:45:32.963Z,5.54
2022-12-02T22:48:03.462Z,4.90
2022-12-02T22:50:33.277Z,5.25
2022-12-02T22:53:03.106Z,5.56
2022-12-02T22:55:32.986Z,5.02
2022-12-02T22:58:04.799Z,5.17
2022-12-02T23:00:34.098Z,5.35
2022-12-02T23:03:03.937Z,5.17
2022-12-02T23:05:33.763Z,5.05
2022-12-02T23:08:03.408Z,4.59
2022-12-02T23:10:34.656Z,5.19
2022-12-02T23:13:06.514Z,4.93
2022-12-02T23:15:38.487Z,4.93
2022-12-02T23:18:09.085Z,5.46
2022-12-02T23:20:39.124Z,4.70
2022-12-02T23:23:08.963Z,5.17
2022-12-02T23:25:38.873Z,5.30
2022-12-02T23:28:10.170Z,5.60
2022-12-02T23:30:40.072Z,5.69
2022-12-02T23:33:10.325Z,5.45
2022-12-02T23:35:40.840Z,5.79
2022-12-02T23:38:10.701Z,5.42
2022-12-02T23:40:40.826Z,5.16
2022-12-02T23:43:12.365Z,5.63
2022-12-02T23:45:42.408Z,5.65
2022-12-02T23:48:12.141Z,4.87
2022-12-02T23:50:42.063Z,5.15
2022-12-02T23:53:12.043Z,5.12
2022-12-02T23:55:41.676Z,4.81
2022-12-02T23:58:12.617Z,4.60
